Time;durP1;ratioP1;P1;durP2;ratioP2;P2;SDS_P1;SDS_P2;PMS_P1;PMS_P2;Temp;Humidity;BMP_temperature;BMP_pressure;BME280_temperature;BME280_humidity;BME280_pressure;Samples;Min_cycle;Max_cycle;Signal;HPM_P1;HPM_P2
2021/06/15 00:02:13;;;;;;;2.90;1.65;;;;;;;14.72;100.00;100443.66;1703180;84;20999;-92
2021/06/15 00:04:39;;;;;;;2.12;1.87;;;;;;;14.68;100.00;100450.08;1703301;84;21522;-93
2021/06/15 00:07:06;;;;;;;3.12;1.72;;;;;;;14.65;100.00;100447.95;1683186;84;21034;-91
2021/06/15 00:09:33;;;;;;;2.75;2.02;;;;;;;14.63;100.00;100448.23;1706064;83;21043;-92
2021/06/15 00:11:59;;;;;;;1.60;1.47;;;;;;;14.62;100.00;100449.38;1703209;84;20995;-94
2021/06/15 00:14:26;;;;;;;2.62;1.37;;;;;;;14.60;100.00;100449.66;1702657;84;21449;-92
2021/06/15 00:16:53;;;;;;;1.72;1.40;;;;;;;14.58;100.00;100442.28;1703188;83;21071;-92
2021/06/15 00:19:20;;;;;;;2.67;1.67;;;;;;;14.57;100.00;100447.53;1703639;84;20992;-93
2021/06/15 00:21:46;;;;;;;3.10;1.60;;;;;;;14.54;100.00;100446.78;1703239;84;20991;-91
2021/06/15 00:24:13;;;;;;;2.77;1.45;;;;;;;14.49;100.00;100453.73;1703679;84;20979;-92
2021/06/15 00:26:39;;;;;;;1.47;1.37;;;;;;;14.47;100.00;100455.16;1703429;83;21022;-92
2021/06/15 00:29:06;;;;;;;2.83;1.35;;;;;;;14.44;100.00;100451.08;1703425;84;21027;-93
2021/06/15 00:31:34;;;;;;;1.37;1.07;;;;;;;14.42;100.00;100454.69;1702836;84;20996;-91
2021/06/15 00:34:01;;;;;;;1.22;1.12;;;;;;;14.38;100.00;100449.53;1703383;84;21551;-92
2021/06/15 00:36:27;;;;;;;2.10;1.60;;;;;;;14.34;100.00;100447.13;1703277;83;21020;-92
2021/06/15 00:38:54;;;;;;;1.77;1.57;;;;;;;14.31;100.00;100451.88;1704506;84;21570;-91
2021/06/15 00:41:21;;;;;;;3.77;1.92;;;;;;;14.28;100.00;100457.98;1703262;84;21019;-92
2021/06/15 00:43:47;;;;;;;2.65;2.30;;;;;;;14.25;100.00;100462.72;1703451;84;21024;-91
2021/06/15 00:46:14;;;;;;;2.40;1.90;;;;;;;14.25;100.00;100455.85;1703237;83;21003;-93
2021/06/15 00:48:41;;;;;;;2.92;1.57;;;;;;;14.26;100.00;100457.47;1703196;84;21003;-92
2021/06/15 00:51:08;;;;;;;3.22;1.85;;;;;;;14.24;100.00;100454.20;1679580;84;21067;-93
2021/06/15 00:53:36;;;;;;;5.22;1.72;;;;;;;14.22;100.00;100449.56;1703204;83;21023;-91
2021/06/15 00:56:04;;;;;;;2.83;1.90;;;;;;;14.19;100.00;100453.73;1703348;84;21655;-92
2021/06/15 00:58:31;;;;;;;2.62;2.17;;;;;;;14.19;100.00;100449.08;1703156;84;21455;-93
2021/06/15 01:00:58;;;;;;;2.83;2.08;;;;;;;14.17;100.00;100447.19;1702983;84;21046;-92
2021/06/15 01:03:26;;;;;;;1.52;1.25;;;;;;;14.16;100.00;100441.42;1703129;83;21472;-92
2021/06/15 01:05:52;;;;;;;2.65;1.22;;;;;;;14.16;100.00;100441.42;1682369;84;21505;-92
2021/06/15 01:08:47;;;;;;;1.85;1.12;;;;;;;14.14;100.00;100442.30;1704064;84;21007;-92
2021/06/15 01:11:39;;;;;;;2.20;1.32;;;;;;;14.11;100.00;100442.89;1694034;84;21510;-93
2021/06/15 01:14:17;;;;;;;1.82;1.47;;;;;;;14.06;100.00;100442.98;1666315;84;21024;-91
2021/06/15 01:16:55;;;;;;;2.30;1.80;;;;;;;14.03;100.00;100439.48;1675766;84;21064;-92
2021/06/15 01:20:01;;;;;;;3.12;1.67;;;;;;;14.00;100.00;100438.72;1666681;84;21518;-93
2021/06/15 01:23:04;;;;;;;1.47;1.35;;;;;;;13.97;100.00;100443.42;1681864;84;21012;-93
2021/06/15 01:26:05;;;;;;;2.02;1.35;;;;;;;13.91;100.00;100448.76;1694181;84;21444;-93
2021/06/15 01:28:36;;;;;;;1.55;1.15;;;;;;;13.83;100.00;100450.27;1694733;84;21077;-93
2021/06/15 01:31:26;;;;;;;3.40;1.40;;;;;;;13.79;100.00;100447.86;1697756;83;21134;-92
2021/06/15 01:33:57;;;;;;;2.02;1.22;;;;;;;13.78;100.00;100446.80;1703340;84;21426;-92
2021/06/15 01:36:28;;;;;;;1.40;1.22;;;;;;;13.78;100.00;100442.12;1703996;84;21451;-93
2021/06/15 01:39:01;;;;;;;1.67;1.37;;;;;;;13.76;100.00;100443.78;1672400;84;21050;-93
2021/06/15 01:41:33;;;;;;;2.58;1.67;;;;;;;13.74;100.00;100446.58;1703362;84;21031;-91
2021/06/15 01:44:07;;;;;;;4.53;1.98;;;;;;;13.71;100.00;100449.92;1703412;84;21038;-92
2021/06/15 01:46:49;;;;;;;1.12;1.05;;;;;;;13.69;100.00;100444.72;1703313;84;21015;-93
2021/06/15 01:49:17;;;;;;;2.27;1.37;;;;;;;13.68;100.00;100449.97;1702866;83;21553;-92
2021/06/15 01:51:44;;;;;;;2.10;1.80;;;;;;;13.66;100.00;100448.08;1683342;84;21012;-92
2021/06/15 01:54:11;;;;;;;2.22;1.45;;;;;;;13.64;100.00;100446.19;1702684;84;21588;-92
2021/06/15 01:56:41;;;;;;;2.17;1.45;;;;;;;13.63;100.00;100451.43;1699965;84;21015;-92
2021/06/15 01:59:11;;;;;;;2.90;1.90;;;;;;;13.61;100.00;100445.98;1703239;83;21027;-94
2021/06/15 02:01:42;;;;;;;4.00;2.72;;;;;;;13.60;100.00;100456.16;1703698;84;21020;-91
2021/06/15 02:04:10;;;;;;;1.80;1.70;;;;;;;13.59;100.00;100450.39;1702928;84;21464;-92
2021/06/15 02:06:37;;;;;;;1.42;1.32;;;;;;;13.59;100.00;100454.51;1703339;83;21429;-92
2021/06/15 02:09:05;;;;;;;2.10;1.30;;;;;;;13.60;100.00;100460.27;1703187;84;21026;-92
2021/06/15 02:11:45;;;;;;;1.90;1.33;;;;;;;13.59;100.00;100466.86;1702685;84;21011;-92
2021/06/15 02:14:18;;;;;;;2.52;1.12;;;;;;;13.59;100.00;100468.80;1662146;84;21871;-93
2021/06/15 02:16:48;;;;;;;2.92;1.82;;;;;;;13.61;100.00;100463.83;1701182;83;21362;-92
2021/06/15 02:19:24;;;;;;;4.00;2.45;;;;;;;13.63;100.00;100472.02;1701678;84;21631;-93
2021/06/15 02:22:00;;;;;;;2.12;1.72;;;;;;;13.64;100.00;100466.78;1703024;84;21433;-93
2021/06/15 02:24:40;;;;;;;2.45;1.40;;;;;;;13.68;100.00;100465.08;1683279;84;21100;-90
2021/06/15 02:27:08;;;;;;;3.35;2.00;;;;;;;13.74;100.00;100462.48;1703942;83;21011;-92
2021/06/15 02:29:35;;;;;;;3.08;2.17;;;;;;;13.80;100.00;100463.77;1703331;84;21011;-92
2021/06/15 02:32:03;;;;;;;1.60;1.50;;;;;;;13.83;100.00;100468.69;1703152;84;21492;-92
2021/06/15 02:34:30;;;;;;;3.30;1.70;;;;;;;13.91;100.00;100465.23;1703576;83;21118;-92
2021/06/15 02:36:59;;;;;;;2.30;1.85;;;;;;;14.01;100.00;100465.06;1702815;84;21480;-92
2021/06/15 02:39:29;;;;;;;2.27;1.37;;;;;;;14.10;100.00;100466.00;1703392;84;20984;-93
2021/06/15 02:41:57;;;;;;;1.60;1.40;;;;;;;14.18;100.00;100468.05;1703052;84;29145;-93
2021/06/15 02:44:29;;;;;;;2.25;1.77;;;;;;;14.29;100.00;100473.34;1672565;84;21461;-91
2021/06/15 02:46:57;;;;;;;3.08;1.82;;;;;;;14.39;100.00;100470.39;1703339;84;21042;-92
2021/06/15 02:49:27;;;;;;;4.05;1.85;;;;;;;14.51;100.00;100466.59;1703507;84;20991;-91
2021/06/15 02:52:10;;;;;;;1.20;1.10;;;;;;;14.63;100.00;100466.92;1703259;84;20999;-93
2021/06/15 02:54:48;;;;;;;2.98;2.10;;;;;;;14.79;100.00;100463.31;1702662;84;21024;-92
2021/06/15 02:57:15;;;;;;;2.12;1.87;;;;;;;14.93;100.00;100475.66;1705937;84;21039;-93
2021/06/15 02:59:44;;;;;;;2.72;2.00;;;;;;;15.05;100.00;100477.31;1703138;84;21462;-93
2021/06/15 03:02:12;;;;;;;4.08;2.62;;;;;;;15.20;100.00;100473.98;1702995;83;21039;-93
2021/06/15 03:04:46;;;;;;;2.95;2.35;;;;;;;15.32;100.00;100468.75;1703410;84;21540;-93
2021/06/15 03:07:15;;;;;;;2.40;1.55;;;;;;;15.41;100.00;100461.39;1703252;84;21011;-93
2021/06/15 03:09:42;;;;;;;2.45;2.00;;;;;;;15.54;100.00;100459.70;1703301;84;21013;-92
2021/06/15 03:12:20;;;;;;;3.00;1.52;;;;;;;15.66;100.00;100462.70;1672325;84;21038;-93
2021/06/15 03:15:08;;;;;;;4.03;1.82;;;;;;;15.77;100.00;100461.91;1703210;84;21070;-93
2021/06/15 03:17:39;;;;;;;2.17;1.52;;;;;;;15.87;100.00;100460.30;1672299;84;21086;-93
2021/06/15 03:20:08;;;;;;;2.80;1.98;;;;;;;16.01;100.00;100454.69;1684138;84;21004;-92
2021/06/15 03:23:16;;;;;;;6.45;2.17;;;;;;;16.13;100.00;100456.30;1701379;83;21470;-93
2021/06/15 03:25:43;;;;;;;2.52;1.87;;;;;;;16.25;100.00;100463.17;1700437;83;21007;-93
2021/06/15 03:28:17;;;;;;;2.77;1.30;;;;;;;16.40;100.00;100470.22;1700364;84;21023;-93
2021/06/15 03:30:43;;;;;;;2.87;1.70;;;;;;;16.51;100.00;100464.65;1684923;84;21027;-93
2021/06/15 03:33:16;;;;;;;2.47;1.87;;;;;;;16.63;100.00;100470.38;1684655;84;21485;-93
2021/06/15 03:35:52;;;;;;;5.67;1.77;;;;;;;16.75;100.00;100462.30;1700605;83;21011;-93
2021/06/15 03:38:18;;;;;;;2.80;1.90;;;;;;;16.90;100.00;100461.06;1685919;84;21038;-93
2021/06/15 03:40:50;;;;;;;3.30;2.10;;;;;;;17.08;100.00;100465.23;1700644;84;21074;-93
2021/06/15 03:43:19;;;;;;;2.45;2.05;;;;;;;17.24;100.00;100458.11;1700706;84;21027;-92
2021/06/15 03:46:08;;;;;;;2.72;1.90;;;;;;;17.43;100.00;100455.58;1699983;83;21027;-92
2021/06/15 03:48:44;;;;;;;3.72;2.27;;;;;;;17.60;100.00;100457.77;1701913;84;21444;-92
2021/06/15 03:51:32;;;;;;;2.60;1.70;;;;;;;17.79;100.00;100452.47;1700479;83;21024;-93
2021/06/15 03:54:06;;;;;;;3.10;1.70;;;;;;;17.97;100.00;100450.50;1700676;83;21020;-92
2021/06/15 03:56:35;;;;;;;1.67;1.57;;;;;;;18.16;100.00;100452.90;1700469;84;21030;-92
2021/06/15 03:59:05;;;;;;;2.98;2.08;;;;;;;18.30;100.00;100450.74;1700076;84;20996;-92
2021/06/15 04:01:35;;;;;;;2.15;1.95;;;;;;;18.47;100.00;100454.81;1699911;84;21560;-93
2021/06/15 04:04:05;;;;;;;2.15;1.95;;;;;;;18.66;100.00;100456.34;1699623;84;20991;-92
2021/06/15 04:06:34;;;;;;;3.77;2.10;;;;;;;18.84;100.00;100463.45;1699954;83;21023;-92
2021/06/15 04:09:03;;;;;;;2.75;2.42;;;;;;;19.02;100.00;100464.14;1700158;84;21449;-92
2021/06/15 04:11:30;;;;;;;3.08;1.95;;;;;;;19.20;100.00;100464.02;1683961;84;21031;-92
2021/06/15 04:13:57;;;;;;;2.52;1.98;;;;;;;19.37;100.00;100470.01;1701048;83;21442;-92
2021/06/15 04:16:24;;;;;;;2.60;1.80;;;;;;;19.49;100.00;100468.69;1684385;84;21020;-93
2021/06/15 04:18:51;;;;;;;2.12;1.60;;;;;;;19.68;100.00;100469.59;1700565;83;21533;-92
2021/06/15 04:21:17;;;;;;;1.92;1.40;;;;;;;19.68;100.00;100469.59;1700401;84;21114;-93
2021/06/15 04:23:48;;;;;;;3.15;2.22;;;;;;;19.80;100.00;100477.15;1700527;84;21470;-93
2021/06/15 04:26:15;;;;;;;2.87;2.02;;;;;;;19.88;100.00;100471.53;1700324;83;21007;-91
2021/06/15 04:28:42;;;;;;;1.85;1.62;;;;;;;19.98;100.00;100471.09;1658764;84;21045;-93
2021/06/15 04:31:08;;;;;;;3.27;2.25;;;;;;;20.05;100.00;100475.26;1679336;84;21519;-93
2021/06/15 04:33:35;;;;;;;5.05;2.08;;;;;;;20.11;100.00;100477.48;1695729;84;21009;-92
2021/06/15 04:36:03;;;;;;;2.47;2.00;;;;;;;20.16;98.94;100468.94;1683528;83;21033;-92
2021/06/15 04:38:41;;;;;;;2.50;1.42;;;;;;;20.22;99.25;100477.03;1668409;85;21026;-91
2021/06/15 04:41:15;;;;;;;3.35;2.52;;;;;;;20.32;98.12;100476.59;1667382;86;21051;-92
2021/06/15 04:44:03;;;;;;;2.70;1.95;;;;;;;20.42;96.37;100473.36;1668043;86;21404;-92
2021/06/15 04:46:57;;;;;;;5.62;2.50;;;;;;;20.45;93.87;100481.02;1695154;83;21053;-93
2021/06/15 04:49:35;;;;;;;2.65;1.62;;;;;;;20.46;92.86;100484.02;1651656;83;21070;-93
2021/06/15 04:52:03;;;;;;;3.02;1.98;;;;;;;20.60;93.09;100484.52;1680296;83;21397;-92
2021/06/15 04:54:36;;;;;;;2.52;2.02;;;;;;;20.76;91.60;100478.27;1699307;84;20989;-92
2021/06/15 04:57:07;;;;;;;2.00;1.65;;;;;;;20.79;90.63;100476.17;1698730;83;21457;-91
2021/06/15 04:59:34;;;;;;;3.15;2.55;;;;;;;20.86;90.16;100473.63;1725170;83;20998;-91
2021/06/15 05:02:00;;;;;;;2.75;1.85;;;;;;;20.95;89.57;100483.25;1714956;83;20997;-92
2021/06/15 05:04:28;;;;;;;2.30;1.80;;;;;;;21.00;89.04;100486.59;1645574;86;21040;-92
2021/06/15 05:06:54;;;;;;;3.52;2.17;;;;;;;21.03;87.97;100477.55;1650384;85;21026;-91
2021/06/15 05:09:25;;;;;;;3.95;2.65;;;;;;;21.10;88.76;100478.94;1657191;86;21053;-92
2021/06/15 05:11:53;;;;;;;2.83;2.37;;;;;;;21.17;88.32;100480.55;1639005;86;21512;-91
2021/06/15 05:14:20;;;;;;;3.72;2.00;;;;;;;21.25;88.00;100474.04;1667556;86;21037;-92
2021/06/15 05:16:48;;;;;;;5.30;2.20;;;;;;;21.35;87.48;100468.58;1628625;86;21025;-92
2021/06/15 05:19:15;;;;;;;2.92;2.30;;;;;;;21.39;85.56;100466.72;1685191;84;21468;-91
2021/06/15 05:21:52;;;;;;;2.25;1.90;;;;;;;21.36;84.93;100464.63;1686664;83;21014;-90
2021/06/15 05:24:49;;;;;;;2.42;2.05;;;;;;;21.40;85.07;100463.60;1661176;85;21418;-91
2021/06/15 05:27:22;;;;;;;2.15;1.50;;;;;;;21.44;84.76;100467.30;1686551;83;20995;-91
2021/06/15 05:29:49;;;;;;;3.83;2.12;;;;;;;21.55;85.47;100470.97;1694339;84;20993;-90
2021/06/15 05:32:16;;;;;;;3.65;2.40;;;;;;;21.71;85.09;100473.23;1687352;83;21002;-91
2021/06/15 05:34:43;;;;;;;4.03;2.87;;;;;;;21.78;84.68;100470.63;1700345;83;21002;-93
2021/06/15 05:37:10;;;;;;;3.42;2.17;;;;;;;21.87;84.61;100472.67;1692109;83;21002;-93
2021/06/15 05:39:37;;;;;;;2.70;1.98;;;;;;;21.97;84.21;100475.53;1691974;84;21460;-94
2021/06/15 05:42:05;;;;;;;1.72;1.50;;;;;;;22.10;83.65;100476.27;1665721;84;21005;-91
2021/06/15 05:44:32;;;;;;;3.27;2.00;;;;;;;22.31;83.42;100478.25;1691940;84;21049;-90
2021/06/15 05:46:59;;;;;;;2.27;1.90;;;;;;;22.49;81.87;100477.90;1702938;82;21072;-91
2021/06/15 05:49:25;;;;;;;2.37;1.82;;;;;;;22.60;82.09;100479.55;1711097;83;21036;-91
2021/06/15 05:52:02;;;;;;;3.17;2.15;;;;;;;22.75;81.68;100475.38;1720481;82;20990;-91
2021/06/15 05:54:34;;;;;;;2.55;2.25;;;;;;;22.85;80.25;100480.14;1691542;83;32879;-94
2021/06/15 05:57:00;;;;;;;3.47;2.50;;;;;;;22.99;79.71;100474.94;1720819;82;21026;-93
2021/06/15 05:59:27;;;;;;;2.50;1.77;;;;;;;23.20;79.11;100475.22;1721675;83;20997;-93
2021/06/15 06:01:54;;;;;;;3.70;2.05;;;;;;;23.40;79.16;100481.03;1711647;82;21033;-92
2021/06/15 06:04:24;;;;;;;3.52;2.17;;;;;;;23.56;78.35;100476.17;1691931;84;21037;-93
2021/06/15 06:09:37;;;;;;;3.22;2.27;;;;;;;23.64;77.07;100477.72;1691805;84;21013;-92
2021/06/15 06:12:05;;;;;;;2.83;2.33;;;;;;;23.63;76.53;100471.94;1691852;83;21057;-93
2021/06/15 06:14:31;;;;;;;4.17;2.27;;;;;;;23.65;75.86;100464.81;1691916;84;20997;-92
2021/06/15 06:16:57;;;;;;;2.90;2.30;;;;;;;23.70;76.34;100453.95;1691836;83;21017;-93
2021/06/15 06:19:24;;;;;;;3.33;2.22;;;;;;;23.78;76.45;100454.33;1691876;84;21010;-93
2021/06/15 06:21:51;;;;;;;3.37;2.47;;;;;;;23.84;76.87;100452.87;1691949;83;21475;-93
2021/06/15 06:24:18;;;;;;;3.75;2.77;;;;;;;23.95;75.90;100446.88;1693704;84;21045;-92
2021/06/15 06:26:50;;;;;;;4.70;2.50;;;;;;;23.99;74.97;100451.95;1664660;84;21423;-93
2021/06/15 06:29:17;;;;;;;3.67;2.55;;;;;;;23.99;75.00;100449.75;1691839;84;20989;-93
2021/06/15 06:31:44;;;;;;;4.28;2.33;;;;;;;24.06;74.49;100445.70;1691989;83;21077;-93
2021/06/15 06:34:11;;;;;;;2.75;2.02;;;;;;;24.16;75.48;100454.02;1691969;84;21459;-93
2021/06/15 06:36:37;;;;;;;3.33;2.30;;;;;;;24.34;75.41;100452.36;1693779;83;21018;-93
2021/06/15 06:39:05;;;;;;;5.15;2.52;;;;;;;24.46;75.21;100450.00;1702700;83;21072;-93
2021/06/15 06:41:33;;;;;;;3.08;2.17;;;;;;;24.47;73.50;100447.42;1691996;83;21014;-94
2021/06/15 06:43:59;;;;;;;3.08;2.65;;;;;;;24.48;74.57;100449.61;1691664;84;21399;-93
2021/06/15 06:46:28;;;;;;;4.72;2.67;;;;;;;24.60;74.63;100446.62;1695732;82;21489;-93
2021/06/15 06:48:54;;;;;;;2.58;1.98;;;;;;;24.79;74.17;100441.53;1691941;84;21002;-92
2021/06/15 06:51:21;;;;;;;3.40;2.30;;;;;;;24.95;74.25;100441.34;1692131;83;21519;-92
2021/06/15 06:53:47;;;;;;;2.55;2.15;;;;;;;25.01;74.00;100442.66;1692940;84;21017;-93
2021/06/15 06:56:14;;;;;;;3.10;2.27;;;;;;;25.01;71.99;100439.26;1708168;82;21029;-92
2021/06/15 06:58:40;;;;;;;3.27;2.08;;;;;;;25.04;71.85;100441.29;1698384;83;21025;-92
2021/06/15 07:01:07;;;;;;;2.75;2.50;;;;;;;25.13;70.80;100443.02;1691932;83;21544;-93
2021/06/15 07:03:33;;;;;;;2.80;2.27;;;;;;;25.20;71.60;100440.35;1698144;83;21018;-93
2021/06/15 07:06:00;;;;;;;2.35;2.00;;;;;;;25.27;71.01;100444.05;1691964;83;21019;-93
2021/06/15 07:08:27;;;;;;;3.90;2.35;;;;;;;25.37;72.57;100435.58;1695386;83;21062;-93
2021/06/15 07:10:54;;;;;;;2.90;2.60;;;;;;;25.55;70.52;100431.59;1720888;82;21112;-93
2021/06/15 07:13:20;;;;;;;3.22;2.40;;;;;;;25.61;70.37;100430.05;1720950;83;21005;-94
2021/06/15 07:15:47;;;;;;;2.95;2.30;;;;;;;25.67;69.42;100438.33;1720671;82;21041;-94
2021/06/15 07:18:13;;;;;;;2.85;2.05;;;;;;;25.72;69.47;100438.59;1721509;83;21483;-92
2021/06/15 07:20:40;;;;;;;2.35;1.77;;;;;;;25.78;68.93;100434.84;1720007;83;21044;-93
2021/06/15 07:23:06;;;;;;;3.50;2.27;;;;;;;25.83;69.71;100440.09;1723799;81;21069;-93
2021/06/15 07:25:33;;;;;;;2.67;2.42;;;;;;;25.87;68.47;100436.17;1701101;83;21053;-93
2021/06/15 07:27:59;;;;;;;2.72;2.05;;;;;;;25.92;69.04;100441.42;1691858;83;21013;-93
2021/06/15 07:30:26;;;;;;;2.08;1.82;;;;;;;25.99;70.23;100435.10;1691988;84;21021;-92
2021/06/15 07:32:57;;;;;;;2.15;1.80;;;;;;;26.08;69.24;100441.77;1694749;83;21060;-93
2021/06/15 07:35:25;;;;;;;2.00;1.77;;;;;;;26.14;68.45;100440.24;1692077;84;21468;-94
2021/06/15 07:37:51;;;;;;;2.08;1.70;;;;;;;26.18;69.02;100434.86;1708146;83;21021;-92
2021/06/15 07:40:24;;;;;;;2.15;1.90;;;;;;;26.26;67.97;100433.52;1719373;83;21009;-93
2021/06/15 07:42:56;;;;;;;1.80;1.47;;;;;;;26.29;65.38;100435.58;1719132;82;20998;-94
2021/06/15 07:45:24;;;;;;;2.65;1.70;;;;;;;26.28;65.43;100423.55;1721676;83;20986;-93
2021/06/15 07:47:51;;;;;;;4.10;2.00;;;;;;;26.35;64.11;100429.21;1722496;82;21045;-95
2021/06/15 07:50:17;;;;;;;1.52;1.35;;;;;;;26.38;63.93;100424.83;1720926;83;20975;-95
2021/06/15 07:52:44;;;;;;;2.33;1.80;;;;;;;26.38;65.06;100429.86;1728824;83;20980;-93
2021/06/15 07:55:11;;;;;;;1.85;1.65;;;;;;;26.43;63.87;100426.47;1723067;83;21004;-93
2021/06/15 07:57:38;;;;;;;2.12;1.92;;;;;;;26.51;65.29;100423.34;1713841;83;20989;-94
2021/06/15 08:00:06;;;;;;;2.05;1.82;;;;;;;26.63;64.39;100420.05;1699766;84;21036;-94
2021/06/15 08:02:34;;;;;;;2.75;2.08;;;;;;;26.70;62.36;100422.89;1698869;83;21530;-94
2021/06/15 08:05:03;;;;;;;1.98;1.65;;;;;;;26.73;64.70;100424.34;1700001;84;21055;-93
2021/06/15 08:07:30;;;;;;;1.30;1.15;;;;;;;26.82;64.54;100421.17;1706965;83;20987;-91
2021/06/15 08:09:57;;;;;;;2.98;1.77;;;;;;;26.87;63.27;100420.80;1679730;84;21073;-90
2021/06/15 08:12:23;;;;;;;3.40;1.95;;;;;;;26.90;63.80;100422.81;1717612;82;21356;-94
2021/06/15 08:14:52;;;;;;;1.87;1.30;;;;;;;26.95;64.78;100420.24;1719375;83;20994;-93
2021/06/15 08:17:24;;;;;;;2.15;1.82;;;;;;;27.00;62.96;100411.45;1719212;82;21997;-91
2021/06/15 08:19:51;;;;;;;2.35;1.65;;;;;;;26.99;64.08;100420.47;1719051;83;21034;-93
2021/06/15 08:22:18;;;;;;;1.98;1.55;;;;;;;27.03;62.44;100421.31;1719253;82;21773;-92
2021/06/15 08:24:44;;;;;;;2.60;1.67;;;;;;;27.08;61.43;100411.72;1720390;83;21057;-91
2021/06/15 08:27:11;;;;;;;2.92;1.37;;;;;;;27.14;62.44;100418.55;1720562;82;20990;-93
2021/06/15 08:29:38;;;;;;;2.42;1.90;;;;;;;27.24;63.69;100416.41;1719384;83;21013;-92
2021/06/15 08:32:05;;;;;;;1.42;1.17;;;;;;;27.31;60.00;100415.66;1719049;82;20991;-92
2021/06/15 08:34:34;;;;;;;1.70;1.52;;;;;;;27.36;59.50;100412.46;1681042;84;21009;-93
2021/06/15 08:37:00;;;;;;;1.50;1.32;;;;;;;27.34;61.06;100409.85;1707744;82;21093;-93
2021/06/15 08:39:26;;;;;;;2.22;1.57;;;;;;;27.35;59.92;100408.06;1707851;84;21045;-93
2021/06/15 08:41:53;;;;;;;2.20;1.67;;;;;;;27.31;61.62;100408.64;1707998;82;21001;-93
2021/06/15 08:44:19;;;;;;;3.52;2.00;;;;;;;27.39;62.18;100407.45;1715959;83;21626;-93
2021/06/15 08:46:46;;;;;;;2.35;1.67;;;;;;;27.54;61.72;100404.70;1718529;82;21101;-92
2021/06/15 08:49:13;;;;;;;2.12;1.55;;;;;;;27.68;61.21;100408.16;1687923;83;21031;-93
2021/06/15 08:51:39;;;;;;;2.33;1.85;;;;;;;27.78;61.00;100406.77;1678918;85;21023;-92
2021/06/15 08:54:11;;;;;;;1.67;1.50;;;;;;;27.83;58.10;100402.20;1661167;85;21038;-92
2021/06/15 08:56:38;;;;;;;2.65;1.60;;;;;;;27.87;59.83;100398.01;1661665;85;21643;-92
2021/06/15 08:59:25;;;;;;;2.70;1.75;;;;;;;27.98;59.04;100395.20;1691529;83;21029;-92
2021/06/15 09:01:54;;;;;;;1.87;1.40;;;;;;;27.98;60.09;100406.44;1695599;83;21558;-92
2021/06/15 09:04:20;;;;;;;1.60;1.50;;;;;;;27.94;58.45;100400.00;1720892;83;21888;-93
2021/06/15 09:06:48;;;;;;;2.15;1.90;;;;;;;27.97;57.60;100396.42;1728861;83;20997;-92
2021/06/15 09:09:15;;;;;;;2.15;1.85;;;;;;;28.00;58.02;100401.23;1728972;82;20954;-93
2021/06/15 09:11:56;;;;;;;1.95;1.72;;;;;;;28.05;56.71;100409.25;1728804;82;21552;-92
2021/06/15 09:14:44;;;;;;;2.22;1.67;;;;;;;28.05;54.67;100400.83;1729149;83;21024;-92
2021/06/15 09:17:19;;;;;;;2.40;1.98;;;;;;;28.07;57.48;100397.03;1728860;83;21067;-94
2021/06/15 09:19:47;;;;;;;1.22;1.12;;;;;;;28.10;54.62;100397.63;1712847;82;20993;-92
2021/06/15 09:22:33;;;;;;;1.52;1.42;;;;;;;28.08;56.14;100393.00;1695154;83;20961;-92
2021/06/15 09:25:07;;;;;;;2.30;2.00;;;;;;;28.03;56.61;100389.98;1694720;83;21016;-92
2021/06/15 09:27:35;;;;;;;1.50;1.40;;;;;;;28.03;55.53;100394.80;1723319;81;21601;-93
2021/06/15 09:30:11;;;;;;;2.77;1.70;;;;;;;28.05;54.48;100398.02;1723395;83;21016;-92
2021/06/15 09:32:41;;;;;;;1.95;1.50;;;;;;;28.02;54.96;100400.23;1723205;81;21609;-92
2021/06/15 09:35:16;;;;;;;1.45;1.20;;;;;;;28.00;55.92;100394.20;1723137;83;20937;-93
2021/06/15 09:37:54;;;;;;;1.42;1.30;;;;;;;28.00;55.14;100392.80;1722230;81;20973;-92
2021/06/15 09:40:24;;;;;;;2.20;1.70;;;;;;;28.03;56.39;100393.41;1723350;83;21455;-93
2021/06/15 09:43:11;;;;;;;2.12;1.50;;;;;;;28.06;55.58;100386.37;1694996;83;21028;-92
2021/06/15 09:45:45;;;;;;;1.87;1.60;;;;;;;28.06;55.68;100382.16;1723972;83;21012;-91
2021/06/15 09:48:31;;;;;;;1.42;1.30;;;;;;;28.07;56.52;100380.17;1723498;83;20961;-91
2021/06/15 09:51:09;;;;;;;4.33;1.92;;;;;;;28.15;55.82;100382.38;1723309;83;21000;-91
2021/06/15 09:53:38;;;;;;;1.72;1.50;;;;;;;28.22;54.82;100378.17;1719536;83;21414;-92
2021/06/15 09:56:11;;;;;;;1.32;1.22;;;;;;;28.20;52.20;100381.98;1707792;84;21180;-91
2021/06/15 09:58:47;;;;;;;1.45;1.35;;;;;;;28.13;53.18;100372.14;1696000;83;21021;-92
2021/06/15 10:01:30;;;;;;;1.55;1.22;;;;;;;28.06;52.72;100374.34;1691790;83;21021;-93
2021/06/15 10:04:19;;;;;;;2.85;1.50;;;;;;;28.05;54.63;100368.53;1692001;84;21390;-91
2021/06/15 10:06:53;;;;;;;1.87;1.77;;;;;;;28.07;53.96;100370.34;1691867;83;21003;-91
2021/06/15 10:09:34;;;;;;;1.32;1.22;;;;;;;28.14;53.29;100375.14;1692347;84;21511;-91
2021/06/15 10:12:07;;;;;;;1.35;1.25;;;;;;;28.15;53.38;100371.14;1691863;83;21053;-92
2021/06/15 10:14:38;;;;;;;3.27;1.47;;;;;;;28.16;55.91;100367.12;1692264;84;20993;-93
2021/06/15 10:17:04;;;;;;;1.75;1.57;;;;;;;28.22;56.86;100362.72;1708513;83;21376;-92
2021/06/15 10:19:32;;;;;;;2.20;1.37;;;;;;;28.29;56.42;100361.31;1725463;81;21001;-92
2021/06/15 10:21:59;;;;;;;1.67;1.17;;;;;;;28.34;53.78;100360.08;1728870;81;21048;-92
2021/06/15 10:24:26;;;;;;;2.52;1.37;;;;;;;28.34;53.50;100362.89;1728713;82;21012;-92
2021/06/15 10:26:53;;;;;;;1.52;1.20;;;;;;;28.35;54.87;100360.30;1727344;82;21526;-91
2021/06/15 10:29:21;;;;;;;1.30;1.20;;;;;;;28.41;56.06;100360.07;1708109;84;21005;-91
2021/06/15 10:31:51;;;;;;;1.30;1.17;;;;;;;28.50;54.23;100357.08;1708016;84;21013;-92
2021/06/15 10:34:49;;;;;;;1.67;1.57;;;;;;;28.54;50.37;100354.27;1721537;82;20996;-92
2021/06/15 10:37:38;;;;;;;2.00;1.67;;;;;;;28.57;50.07;100353.45;1705640;84;21037;-92
2021/06/15 10:40:26;;;;;;;2.05;1.37;;;;;;;28.58;52.51;100355.05;1720541;82;21036;-92
2021/06/15 10:43:17;;;;;;;1.47;1.37;;;;;;;28.61;53.48;100351.45;1695869;83;21009;-93
2021/06/15 10:45:52;;;;;;;1.45;1.20;;;;;;;28.73;49.25;100348.79;1690935;82;21066;-92
2021/06/15 10:48:23;;;;;;;3.70;1.45;;;;;;;28.75;51.15;100344.17;1719174;83;21086;-92
2021/06/15 10:50:51;;;;;;;;;;;;;;;28.78;49.30;100339.14;1672372;82;21547;-93
2021/06/15 10:53:19;;;;;;;2.60;1.82;;;;;;;28.76;47.76;100329.72;1720679;83;20156;-92
2021/06/15 10:55:56;;;;;;;3.95;1.75;;;;;;;28.80;51.09;100325.48;1720865;82;20998;-93
2021/06/15 10:58:44;;;;;;;1.20;1.10;;;;;;;28.79;50.27;100313.44;1720793;83;21017;-93
2021/06/15 11:01:29;;;;;;;1.35;1.25;;;;;;;28.82;50.17;100310.42;1694360;83;21605;-92
2021/06/15 11:04:11;;;;;;;1.45;1.30;;;;;;;28.85;49.53;100311.00;1694807;84;21005;-92
2021/06/15 11:06:43;;;;;;;1.52;1.42;;;;;;;28.73;46.50;100303.22;1694864;83;21009;-93
2021/06/15 11:09:18;;;;;;;1.70;1.40;;;;;;;28.67;50.03;100306.24;1694752;84;21017;-93
2021/06/15 11:12:05;;;;;;;1.62;1.27;;;;;;;28.76;51.42;100296.56;1695271;83;21341;-93
2021/06/15 11:14:31;;;;;;;1.77;1.65;;;;;;;28.95;50.62;100303.12;1720572;83;21018;-92
2021/06/15 11:17:00;;;;;;;3.17;1.70;;;;;;;29.05;51.47;100298.05;1720690;81;21033;-93
2021/06/15 11:19:31;;;;;;;1.55;1.45;;;;;;;29.16;51.93;100292.41;1718927;83;21569;-91
2021/06/15 11:22:19;;;;;;;1.45;1.35;;;;;;;29.34;48.23;100272.59;1704172;82;21013;-93
2021/06/15 11:24:50;;;;;;;1.85;1.22;;;;;;;29.48;48.10;100269.69;1682521;85;20986;-93
2021/06/15 11:27:25;;;;;;;2.27;1.10;;;;;;;29.67;47.28;100264.13;1718152;82;21018;-93
2021/06/15 11:29:53;;;;;;;1.15;0.95;;;;;;;29.83;46.49;100265.62;1713468;83;20998;-93
2021/06/15 11:32:23;;;;;;;3.00;1.55;;;;;;;29.94;47.87;100250.83;1719144;82;21025;-93
2021/06/15 11:34:59;;;;;;;1.75;1.40;;;;;;;30.13;47.82;100251.64;1692384;83;21053;-94
2021/06/15 11:37:35;;;;;;;1.30;1.20;;;;;;;30.30;48.09;100241.44;1719354;82;21002;-93
2021/06/15 11:40:25;;;;;;;1.87;1.30;;;;;;;30.49;45.27;100242.02;1720649;83;21013;-93
2021/06/15 11:42:55;;;;;;;1.87;1.20;;;;;;;30.59;45.03;100233.45;1720724;82;21395;-93
2021/06/15 11:45:43;;;;;;;1.50;1.22;;;;;;;30.69;44.69;100235.12;1719275;83;20998;-91